Time;durP1;ratioP1;P1;durP2;ratioP2;P2;SDS_P1;SDS_P2;PMS_P1;PMS_P2;Temp;Humidity;BMP_temperature;BMP_pressure;BME280_temperature;BME280_humidity;BME280_pressure;Samples;Min_cycle;Max_cycle;Signal;HPM_P1;HPM_P2
2022/01/16 00:01:58;;;;;;;45.42;20.95;;;;;;;2.08;86.34;102313.75;5029077;28;20140;-72
2022/01/16 00:06:23;;;;;;;40.90;19.95;;;;;;;2.07;86.21;102324.09;5034905;28;20109;-72
2022/01/16 00:08:50;;;;;;;41.00;20.35;;;;;;;2.05;85.88;102329.25;5017402;28;20038;-72
2022/01/16 00:11:18;;;;;;;41.70;19.88;;;;;;;2.01;85.84;102337.81;5036075;28;20084;-71
2022/01/16 00:13:45;;;;;;;44.42;19.85;;;;;;;1.95;85.55;102329.84;5037224;28;20522;-72
2022/01/16 00:16:16;;;;;;;44.05;20.08;;;;;;;1.90;85.36;102334.00;5035239;28;20894;-70
2022/01/16 00:18:52;;;;;;;43.80;21.33;;;;;;;1.85;85.68;102345.16;5037539;28;20038;-69
2022/01/16 00:21:25;;;;;;;45.38;20.25;;;;;;;1.84;85.65;102335.59;5036590;28;20120;-71
2022/01/16 00:23:53;;;;;;;44.72;21.33;;;;;;;1.82;85.58;102339.00;5037444;28;20049;-76
2022/01/16 00:26:22;;;;;;;47.65;22.08;;;;;;;1.78;85.78;102339.72;5037442;28;20038;-76
2022/01/16 00:28:51;;;;;;;48.50;22.00;;;;;;;1.77;85.79;102325.84;5037396;28;20042;-76
2022/01/16 00:31:21;;;;;;;47.17;21.77;;;;;;;1.75;85.93;102322.31;5037267;28;20484;-77
2022/01/16 00:33:49;;;;;;;47.40;22.52;;;;;;;1.76;85.81;102313.69;5037290;28;20394;-77
2022/01/16 00:36:19;;;;;;;49.35;23.70;;;;;;;1.75;85.84;102322.31;5037328;28;20050;-76
2022/01/16 00:38:48;;;;;;;53.97;26.05;;;;;;;1.74;85.84;102333.56;5016868;28;20043;-76
2022/01/16 00:41:19;;;;;;;59.15;24.77;;;;;;;1.74;85.88;102330.97;5032241;28;20173;-76
2022/01/16 00:43:48;;;;;;;55.47;25.85;;;;;;;1.73;85.86;102328.31;5035426;28;20045;-74
2022/01/16 00:46:16;;;;;;;52.45;25.95;;;;;;;1.74;86.02;102328.34;5029352;28;20039;-71
2022/01/16 00:48:45;;;;;;;58.60;27.77;;;;;;;1.74;85.93;102333.56;5034377;28;20120;-71
2022/01/16 00:51:15;;;;;;;53.75;25.75;;;;;;;1.76;86.00;102329.28;5030588;28;20038;-69
2022/01/16 00:53:46;;;;;;;53.70;25.92;;;;;;;1.77;85.90;102349.25;5042673;28;20042;-71
2022/01/16 00:56:14;;;;;;;51.53;26.25;;;;;;;1.77;85.90;102335.34;5033073;28;20500;-71
2022/01/16 00:58:41;;;;;;;55.33;26.67;;;;;;;1.77;85.77;102320.66;5036068;28;20055;-71
2022/01/16 01:01:09;;;;;;;52.05;25.40;;;;;;;1.75;85.57;102311.03;5036855;28;20038;-75
2022/01/16 01:03:37;;;;;;;44.80;23.17;;;;;;;1.74;85.54;102299.75;5036578;28;20038;-75
2022/01/16 01:06:04;;;;;;;47.33;23.35;;;;;;;1.73;85.60;102307.53;5036572;28;20092;-74
2022/01/16 01:08:32;;;;;;;46.83;23.75;;;;;;;1.69;85.47;102297.00;5036672;28;20109;-74
2022/01/16 01:11:04;;;;;;;46.40;23.75;;;;;;;1.70;85.67;102322.19;5036445;28;20108;-71
2022/01/16 01:13:43;;;;;;;49.90;24.52;;;;;;;1.68;85.77;102303.06;5035269;28;20057;-72
2022/01/16 01:16:15;;;;;;;49.55;24.58;;;;;;;1.69;85.79;102320.41;5031220;28;20037;-73
2022/01/16 01:18:44;;;;;;;45.72;23.92;;;;;;;1.68;85.67;102295.25;5034072;28;20113;-73
2022/01/16 01:21:26;;;;;;;47.88;22.75;;;;;;;1.68;85.74;102302.16;5036168;28;20460;-74
2022/01/16 01:23:56;;;;;;;48.83;22.98;;;;;;;1.69;85.95;102291.81;5023566;28;20038;-74
2022/01/16 01:26:33;;;;;;;51.47;23.95;;;;;;;1.72;85.95;102288.41;5039668;28;20044;-72
2022/01/16 01:28:59;;;;;;;48.10;23.80;;;;;;;1.74;86.12;102291.06;5045430;28;20042;-73
2022/01/16 01:31:27;;;;;;;50.47;23.88;;;;;;;1.76;86.13;102303.28;5036300;28;20493;-75
2022/01/16 01:33:54;;;;;;;55.50;23.80;;;;;;;1.78;86.06;102298.13;5032810;28;20133;-74
2022/01/16 01:36:21;;;;;;;58.55;24.17;;;;;;;1.78;85.96;102296.38;5036237;28;20421;-73
2022/01/16 01:38:48;;;;;;;51.63;23.27;;;;;;;1.78;85.88;102241.78;5035205;28;20487;-73
2022/01/16 01:41:16;;;;;;;54.53;24.85;;;;;;;1.79;86.06;102227.94;5035239;28;20125;-71
2022/01/16 01:51:44;;;;;;;52.80;24.73;;;;;;;1.78;85.95;102231.38;5037751;28;20034;-71
2022/01/16 01:54:13;;;;;;;54.38;24.65;;;;;;;1.81;85.88;102256.63;5038034;28;20041;-72
2022/01/16 01:56:41;;;;;;;55.35;25.10;;;;;;;1.82;85.95;102253.19;5035835;28;20525;-71
2022/01/16 01:59:10;;;;;;;53.90;25.58;;;;;;;1.82;85.91;102271.38;5037095;28;20050;-70
2022/01/16 02:01:37;;;;;;;55.25;24.67;;;;;;;1.81;85.62;102274.81;5051018;28;20044;-72
2022/01/16 02:04:05;;;;;;;62.78;25.45;;;;;;;1.79;85.59;102279.94;5034073;28;20140;-71
2022/01/16 02:06:33;;;;;;;66.95;25.77;;;;;;;1.78;85.75;102275.59;5031056;28;20076;-72
2022/01/16 02:09:06;;;;;;;56.65;25.30;;;;;;;1.75;85.50;102283.31;5047659;28;20038;-72
2022/01/16 02:11:35;;;;;;;59.88;25.35;;;;;;;1.73;85.50;102273.72;5035216;28;20050;-73
2022/01/16 02:14:24;;;;;;;56.92;25.73;;;;;;;1.72;85.55;102271.94;5028020;28;20070;-72
2022/01/16 02:28:36;;;;;;;58.13;25.05;;;;;;;1.60;85.58;102301.03;5035658;28;20045;-75
2022/01/16 02:31:22;;;;;;;61.90;25.85;;;;;;;1.59;85.75;102320.06;5034533;28;20089;-70
2022/01/16 02:36:47;;;;;;;54.63;25.15;;;;;;;1.56;85.80;102318.28;5023684;28;20053;-75
2022/01/16 02:39:16;;;;;;;60.28;26.50;;;;;;;1.56;85.93;102318.28;5051781;28;20085;-75
2022/01/16 02:41:46;;;;;;;58.28;25.60;;;;;;;1.55;85.93;102314.81;5035032;28;20049;-74
2022/01/16 02:46:46;;;;;;;61.83;26.33;;;;;;;1.54;85.86;102313.03;5031167;28;20122;-75
2022/01/16 02:49:23;;;;;;;61.10;26.00;;;;;;;1.55;86.00;102303.50;5031917;28;20085;-73
2022/01/16 02:51:55;;;;;;;72.63;26.58;;;;;;;1.57;86.02;102298.38;5035459;28;20096;-73
2022/01/16 02:54:23;;;;;;;57.88;24.30;;;;;;;1.55;86.15;102287.91;5029758;28;20064;-72
2022/01/16 02:56:51;;;;;;;73.97;25.05;;;;;;;1.57;86.22;102287.97;5042987;28;20033;-72
2022/01/16 02:59:20;;;;;;;58.25;25.15;;;;;;;1.58;86.19;102284.53;5032378;28;20069;-72
2022/01/16 03:01:49;;;;;;;71.13;25.25;;;;;;;1.60;86.08;102282.84;5018864;28;20047;-75
2022/01/16 03:04:17;;;;;;;60.97;25.02;;;;;;;1.56;86.04;102271.47;5018827;28;20042;-73
2022/01/16 03:06:44;;;;;;;64.97;25.63;;;;;;;1.54;86.16;102273.13;5037463;28;20124;-74
2022/01/16 03:09:13;;;;;;;67.50;24.33;;;;;;;1.53;86.19;102261.88;5038375;28;20045;-74
2022/01/16 03:11:48;;;;;;;68.03;23.98;;;;;;;1.51;86.31;102265.28;5046147;28;20046;-71
2022/01/16 03:14:20;;;;;;;73.38;25.05;;;;;;;1.52;86.46;102252.31;5035332;28;20507;-70
2022/01/16 03:16:51;;;;;;;64.40;25.17;;;;;;;1.52;86.37;102252.31;5036075;28;20053;-70
2022/01/16 03:22:06;;;;;;;66.63;25.15;;;;;;;1.54;86.50;102247.16;5039602;28;20095;-71
2022/01/16 03:24:45;;;;;;;60.63;25.50;;;;;;;1.56;86.59;102261.06;5035978;28;20049;-70
2022/01/16 03:27:19;;;;;;;59.40;23.92;;;;;;;1.59;86.51;102258.59;5036199;28;20287;-72
2022/01/16 03:29:51;;;;;;;66.00;26.20;;;;;;;1.61;86.43;102259.50;5038604;28;20050;-72
2022/01/16 03:32:22;;;;;;;67.25;25.67;;;;;;;1.63;86.61;102251.75;5038130;28;20049;-72
2022/01/16 03:34:49;;;;;;;62.00;25.13;;;;;;;1.65;86.56;102242.28;5040906;28;20033;-75
2022/01/16 03:37:17;;;;;;;66.55;25.42;;;;;;;1.68;86.63;102237.16;5044334;28;20034;-72
2022/01/16 03:39:44;;;;;;;59.60;25.30;;;;;;;1.70;86.70;102232.88;5037323;28;20125;-72
2022/01/16 03:42:11;;;;;;;62.67;26.08;;;;;;;1.73;86.59;102222.56;5037934;28;20041;-72
2022/01/16 03:44:38;;;;;;;64.13;24.83;;;;;;;1.74;86.54;102220.84;5036693;28;20048;-71
2022/01/16 03:47:06;;;;;;;69.15;25.00;;;;;;;1.73;86.60;102219.13;5037757;28;20037;-71
2022/01/16 03:49:33;;;;;;;63.97;24.75;;;;;;;1.74;86.46;102229.53;5037791;28;20515;-72
2022/01/16 03:52:00;;;;;;;65.05;23.95;;;;;;;1.74;86.32;102221.75;5041104;28;20140;-72
2022/01/16 03:54:31;;;;;;;64.72;25.17;;;;;;;1.74;86.38;102226.03;5036287;28;20392;-71
2022/01/16 03:56:59;;;;;;;91.93;25.67;;;;;;;1.72;86.36;102233.81;5047879;28;20045;-71
2022/01/16 03:59:27;;;;;;;63.13;24.42;;;;;;;1.72;86.30;102240.75;5048692;28;20041;-71
2022/01/16 04:01:55;;;;;;;56.33;26.13;;;;;;;1.72;86.42;102241.63;5037477;28;20049;-71
2022/01/16 04:04:22;;;;;;;59.25;24.52;;;;;;;1.74;86.48;102250.34;5033971;28;20049;-71
2022/01/16 04:06:49;;;;;;;66.38;25.70;;;;;;;1.75;86.42;102248.63;5031052;28;20808;-72
2022/01/16 04:09:16;;;;;;;65.55;26.02;;;;;;;1.76;86.47;102252.97;5036891;28;20125;-71
2022/01/16 04:11:52;;;;;;;65.32;25.45;;;;;;;1.76;86.42;102248.69;5030691;28;20042;-72
2022/01/16 04:14:26;;;;;;;64.38;27.15;;;;;;;1.77;86.29;102242.66;5032728;28;20101;-70
2022/01/16 04:16:53;;;;;;;64.55;25.75;;;;;;;1.76;86.41;102237.38;5036164;28;20038;-70
2022/01/16 04:19:21;;;;;;;60.22;25.58;;;;;;;1.78;86.46;102239.19;5035868;28;20046;-70
2022/01/16 04:21:48;;;;;;;63.63;26.48;;;;;;;1.81;86.56;102233.22;5033119;28;20042;-72
2022/01/16 04:24:17;;;;;;;60.80;26.08;;;;;;;1.82;86.69;102222.84;5035697;28;20046;-68
2022/01/16 04:26:44;;;;;;;61.20;25.67;;;;;;;1.84;86.51;102228.06;5034189;28;20041;-70
2022/01/16 04:29:11;;;;;;;73.80;28.85;;;;;;;1.85;86.60;102229.84;5035504;28;20045;-71
2022/01/16 04:31:38;;;;;;;68.80;27.08;;;;;;;1.85;86.51;102224.63;5043539;28;20064;-70
2022/01/16 04:34:05;;;;;;;65.68;25.85;;;;;;;1.88;86.45;102234.25;5036464;28;20041;-71
2022/01/16 04:36:32;;;;;;;72.00;27.48;;;;;;;1.87;86.54;102228.16;5037200;28;20038;-71
2022/01/16 04:38:59;;;;;;;69.70;27.52;;;;;;;1.88;86.38;102221.25;5036724;28;20057;-70
2022/01/16 04:44:23;;;;;;;74.20;28.70;;;;;;;1.86;86.36;102223.78;5091596;28;20056;-71
2022/01/16 04:46:50;;;;;;;65.43;26.20;;;;;;;1.85;86.30;102228.13;5030595;28;20047;-70
2022/01/16 04:49:17;;;;;;;72.18;27.30;;;;;;;1.85;86.26;102235.94;5035708;28;20040;-70
2022/01/16 04:51:44;;;;;;;72.40;26.95;;;;;;;1.85;86.30;102229.84;5026441;28;20043;-74
2022/01/16 04:54:11;;;;;;;67.18;28.05;;;;;;;1.85;86.46;102235.03;5034026;28;20045;-75
2022/01/16 04:56:38;;;;;;;65.07;27.40;;;;;;;1.86;86.29;102232.50;5035676;28;20053;-76
2022/01/16 04:59:06;;;;;;;68.65;26.73;;;;;;;1.86;86.14;102234.19;5037419;28;20049;-75
2022/01/16 05:01:34;;;;;;;71.70;26.05;;;;;;;1.83;86.07;102239.34;5037301;28;20045;-73
2022/01/16 05:04:01;;;;;;;72.00;28.02;;;;;;;1.82;86.24;102235.84;5036682;28;20049;-74
2022/01/16 05:06:28;;;;;;;62.42;26.90;;;;;;;1.83;86.04;102241.94;5036577;28;20429;-75
2022/01/16 05:08:55;;;;;;;63.22;26.98;;;;;;;1.82;86.11;102228.03;5033419;28;20038;-76
2022/01/16 05:11:25;;;;;;;66.05;26.33;;;;;;;1.80;85.97;102218.44;5024982;28;20045;-76
2022/01/16 05:16:40;;;;;;;63.13;25.80;;;;;;;1.80;86.17;102210.63;5016110;28;20043;-76
2022/01/16 05:19:13;;;;;;;68.25;27.17;;;;;;;1.78;86.09;102213.16;5016403;28;20405;-76
2022/01/16 05:21:42;;;;;;;59.13;26.65;;;;;;;1.76;85.98;102212.28;5036739;28;20496;-73
2022/01/16 05:24:11;;;;;;;60.17;25.45;;;;;;;1.75;86.01;102215.72;5034092;28;20061;-73
2022/01/16 05:26:44;;;;;;;64.43;26.83;;;;;;;1.76;86.07;102208.78;5039324;28;20043;-73
2022/01/16 05:29:12;;;;;;;65.22;27.42;;;;;;;1.77;86.08;102205.34;5042099;28;20092;-74
2022/01/16 05:31:44;;;;;;;62.00;27.02;;;;;;;1.78;85.96;102196.69;5036554;28;20049;-73
2022/01/16 05:34:17;;;;;;;62.05;28.20;;;;;;;1.76;85.83;102201.88;5036090;28;20078;-74
2022/01/16 05:36:46;;;;;;;63.40;28.85;;;;;;;1.77;86.06;102207.94;5036529;28;20048;-73
2022/01/16 05:39:13;;;;;;;65.53;28.67;;;;;;;1.78;85.94;102207.09;5031209;28;20050;-72
2022/01/16 05:41:40;;;;;;;65.43;28.58;;;;;;;1.77;86.05;102207.94;5035571;28;20623;-70
2022/01/16 05:44:08;;;;;;;62.58;27.05;;;;;;;1.77;85.93;102203.63;5035534;28;20105;-71
2022/01/16 05:46:35;;;;;;;64.57;28.70;;;;;;;1.78;86.08;102196.69;5034203;28;20042;-72
2022/01/16 05:49:03;;;;;;;62.35;28.35;;;;;;;1.79;86.05;102203.66;5035966;28;20088;-72
2022/01/16 05:51:30;;;;;;;64.68;29.40;;;;;;;1.79;85.98;102214.94;5035701;28;20050;-73
2022/01/16 05:53:57;;;;;;;70.00;29.17;;;;;;;1.81;85.86;102213.25;5035592;28;20046;-68
2022/01/16 05:56:34;;;;;;;65.47;28.48;;;;;;;1.84;86.12;102210.75;5035909;28;20050;-72
2022/01/16 05:59:02;;;;;;;62.97;30.05;;;;;;;1.86;86.05;102214.28;5035180;28;20041;-73
2022/01/16 06:01:29;;;;;;;62.33;29.27;;;;;;;1.90;86.00;102216.97;5035102;28;20045;-69
2022/01/16 06:03:57;;;;;;;64.00;27.90;;;;;;;1.91;86.18;102208.31;5033913;28;20061;-68
2022/01/16 06:06:28;;;;;;;61.53;29.52;;;;;;;1.91;86.05;102196.22;5035737;28;20042;-73
2022/01/16 06:08:55;;;;;;;70.20;29.50;;;;;;;1.94;85.97;102203.22;5035428;28;20097;-72
2022/01/16 06:11:25;;;;;;;67.78;31.10;;;;;;;1.94;86.09;102198.88;5033659;28;20046;-72
2022/01/16 06:13:52;;;;;;;66.45;29.50;;;;;;;1.97;86.13;102206.78;5035014;28;20042;-72
2022/01/16 06:16:20;;;;;;;66.78;29.80;;;;;;;1.98;86.08;102208.53;5033465;28;20042;-70
2022/01/16 06:18:47;;;;;;;66.13;31.27;;;;;;;1.99;85.98;102201.59;5033884;28;20136;-71
2022/01/16 06:21:14;;;;;;;69.30;32.42;;;;;;;2.00;85.98;102199.06;5032657;28;20503;-71
2022/01/16 06:23:41;;;;;;;68.93;32.17;;;;;;;2.03;85.96;102203.47;5033200;28;20061;-71
2022/01/16 06:26:09;;;;;;;63.10;30.77;;;;;;;2.05;86.05;102200.88;5033363;28;20045;-72
2022/01/16 06:28:36;;;;;;;67.72;30.95;;;;;;;2.07;85.95;102210.50;5036566;28;20084;-72
2022/01/16 06:31:05;;;;;;;64.35;30.50;;;;;;;2.09;85.68;102208.81;5038445;28;20042;-77
2022/01/16 06:33:32;;;;;;;63.53;31.92;;;;;;;2.10;86.01;102207.09;5037186;28;20131;-74
2022/01/16 06:36:01;;;;;;;66.85;31.95;;;;;;;2.11;85.92;102214.94;5037404;28;20038;-75
2022/01/16 06:38:29;;;;;;;59.53;29.90;;;;;;;2.12;85.74;102219.31;5038182;28;20116;-71
2022/01/16 06:40:56;;;;;;;67.35;30.65;;;;;;;2.13;86.03;102221.06;5037350;28;20030;-72
2022/01/16 06:43:25;;;;;;;60.55;30.15;;;;;;;2.16;85.83;102221.16;5036982;28;20034;-71
2022/01/16 06:45:54;;;;;;;57.78;30.23;;;;;;;2.18;85.94;102229.00;5038358;28;20059;-71
2022/01/16 06:48:22;;;;;;;58.22;30.73;;;;;;;2.21;85.98;102225.59;5032843;28;20133;-70
2022/01/16 06:50:50;;;;;;;59.70;29.17;;;;;;;2.23;85.75;102227.41;5038820;28;20045;-73
2022/01/16 06:53:17;;;;;;;58.20;29.30;;;;;;;2.24;85.88;102225.69;5038495;28;20053;-73
2022/01/16 06:55:44;;;;;;;58.88;30.35;;;;;;;2.25;85.71;102232.66;5037865;28;20081;-72
2022/01/16 06:58:12;;;;;;;58.70;29.35;;;;;;;2.26;85.64;102232.69;5036745;28;20121;-68
2022/01/16 07:00:39;;;;;;;60.25;31.10;;;;;;;2.26;85.73;102243.09;5034898;28;20038;-72
2022/01/16 07:03:07;;;;;;;58.70;30.15;;;;;;;2.28;85.71;102243.16;5037153;28;20051;-71
2022/01/16 07:05:35;;;;;;;54.67;29.65;;;;;;;2.30;85.83;102241.44;5037486;28;20503;-72
2022/01/16 07:08:02;;;;;;;57.15;28.95;;;;;;;2.35;85.81;102244.16;5033945;28;20744;-69
2022/01/16 07:10:29;;;;;;;54.50;30.88;;;;;;;2.35;85.75;102249.38;5031503;28;20041;-69
2022/01/16 07:12:55;;;;;;;58.65;29.90;;;;;;;2.37;85.70;102251.19;5032375;28;20129;-71
2022/01/16 07:15:23;;;;;;;57.45;30.45;;;;;;;2.38;85.64;102247.75;5036107;28;20041;-70
2022/01/16 07:17:50;;;;;;;56.10;30.05;;;;;;;2.39;85.56;102257.31;5032593;28;20053;-70
2022/01/16 07:20:17;;;;;;;59.92;30.20;;;;;;;2.43;85.68;102260.91;5035955;28;20045;-71
2022/01/16 07:22:44;;;;;;;54.70;30.48;;;;;;;2.44;85.76;102262.66;5037067;28;20049;-71
2022/01/16 07:25:14;;;;;;;60.20;30.67;;;;;;;2.46;85.69;102279.19;5036749;28;20109;-74
2022/01/16 07:27:42;;;;;;;55.53;29.55;;;;;;;2.48;85.57;102275.78;5035140;28;20156;-71
2022/01/16 07:30:09;;;;;;;54.95;28.98;;;;;;;2.48;85.50;102280.09;5035386;28;20045;-71
2022/01/16 07:32:38;;;;;;;55.30;29.67;;;;;;;2.52;85.76;102278.47;5033615;28;20042;-71
2022/01/16 07:35:06;;;;;;;58.25;29.65;;;;;;;2.58;85.78;102276.91;5033348;28;20076;-71
2022/01/16 07:37:53;;;;;;;56.10;29.38;;;;;;;2.65;85.92;102280.53;5028425;28;20044;-69
2022/01/16 07:40:22;;;;;;;58.42;30.15;;;;;;;2.71;86.11;102285.91;5031826;28;20046;-71
2022/01/16 07:42:50;;;;;;;59.40;29.40;;;;;;;2.81;85.76;102294.84;5046027;28;20046;-69
2022/01/16 07:45:19;;;;;;;54.30;29.42;;;;;;;2.89;85.95;102280.28;5034044;28;20050;-70
2022/01/16 07:47:48;;;;;;;48.35;26.00;;;;;;;2.96;85.61;102281.31;5026697;28;20502;-70
2022/01/16 07:50:16;;;;;;;52.72;28.98;;;;;;;3.03;85.66;102291.03;5032529;28;20100;-69
2022/01/16 07:52:47;;;;;;;50.20;28.67;;;;;;;3.11;85.63;102302.50;5035364;28;20038;-70
2022/01/16 07:55:17;;;;;;;52.03;28.25;;;;;;;3.22;85.62;102297.56;5034942;28;20045;-71
2022/01/16 07:57:44;;;;;;;53.50;29.20;;;;;;;3.28;85.28;102301.16;5048279;28;20042;-70
2022/01/16 08:00:30;;;;;;;54.90;29.27;;;;;;;3.32;85.09;102310.81;5032833;28;20120;-70
2022/01/16 08:02:57;;;;;;;49.88;27.02;;;;;;;3.34;84.85;102311.75;5032457;28;20116;-70
2022/01/16 08:05:26;;;;;;;48.72;27.20;;;;;;;3.39;nan;102308.41;5028304;28;20045;-70
2022/01/16 08:07:53;;;;;;;47.78;26.02;;;;;;;3.45;84.62;102315.50;5033294;28;20152;-70
2022/01/16 08:10:21;;;;;;;50.55;27.33;;;;;;;3.51;84.42;102320.84;5032730;28;20041;-70
2022/01/16 08:12:48;;;;;;;47.72;26.73;;;;;;;3.55;84.12;102304.41;5033690;28;20038;-71
2022/01/16 08:15:15;;;;;;;51.90;27.30;;;;;;;3.59;83.92;102313.19;5034740;28;20092;-71
2022/01/16 08:17:42;;;;;;;45.85;26.08;;;;;;;3.60;83.78;102317.56;5035391;28;20038;-71
2022/01/16 08:20:10;;;;;;;53.00;27.05;;;;;;;3.62;83.69;102309.75;5035364;28;20046;-70
2022/01/16 08:22:39;;;;;;;46.55;26.52;;;;;;;3.63;83.34;102314.13;5033503;28;20045;-75
2022/01/16 08:25:07;;;;;;;48.05;26.45;;;;;;;3.62;83.33;102300.19;5048683;28;20096;-70
2022/01/16 08:27:34;;;;;;;46.45;26.38;;;;;;;3.61;83.34;102294.94;5034288;28;20042;-73
2022/01/16 08:30:06;;;;;;;43.35;24.58;;;;;;;3.64;83.54;102287.19;5048652;28;20042;-72
2022/01/16 08:32:34;;;;;;;47.97;25.52;;;;;;;3.69;83.35;102289.06;5033795;28;20046;-72
2022/01/16 08:35:02;;;;;;;46.33;25.23;;;;;;;3.76;83.30;102291.78;5034453;28;20121;-71
2022/01/16 08:37:31;;;;;;;47.00;25.50;;;;;;;3.79;82.94;102290.13;5032289;28;20038;-71
2022/01/16 08:39:58;;;;;;;43.28;24.42;;;;;;;3.82;82.97;102299.75;5033935;28;20065;-70
2022/01/16 08:42:26;;;;;;;44.88;25.50;;;;;;;3.87;82.86;102300.72;5028704;28;20039;-71
2022/01/16 08:44:56;;;;;;;43.88;24.67;;;;;;;3.89;83.01;102301.66;5034337;28;20544;-71
2022/01/16 08:47:23;;;;;;;42.42;26.00;;;;;;;3.92;82.84;102300.81;5033180;28;20504;-70
2022/01/16 08:49:50;;;;;;;45.15;25.02;;;;;;;3.97;82.88;102310.50;5049160;28;20056;-70
2022/01/16 08:52:21;;;;;;;40.28;23.70;;;;;;;3.99;82.70;102306.22;5033270;28;20049;-71
2022/01/16 08:54:50;;;;;;;42.83;24.05;;;;;;;4.00;82.40;102301.84;5034860;28;20049;-71
2022/01/16 08:57:18;;;;;;;44.45;24.70;;;;;;;4.02;82.56;102311.47;5034783;28;20038;-71
2022/01/16 08:59:49;;;;;;;43.50;24.10;;;;;;;4.05;82.39;102310.69;5034509;28;20069;-71
2022/01/16 09:02:17;;;;;;;41.60;23.58;;;;;;;4.09;82.26;102319.44;5035035;28;20096;-71
2022/01/16 09:04:45;;;;;;;39.60;23.35;;;;;;;4.12;81.60;102329.97;5030893;28;20105;-72
2022/01/16 09:07:13;;;;;;;43.42;24.52;;;;;;;4.14;81.93;102325.63;5031166;28;20049;-71
2022/01/16 09:09:44;;;;;;;42.67;24.42;;;;;;;4.16;82.09;102327.44;5033653;28;20122;-70
2022/01/16 09:12:12;;;;;;;44.60;23.30;;;;;;;4.21;82.12;102327.53;5031195;28;20049;-73
2022/01/16 09:14:39;;;;;;;38.10;22.35;;;;;;;4.26;82.00;102323.25;5044799;28;20050;-71
2022/01/16 09:17:06;;;;;;;42.28;23.33;;;;;;;4.30;81.92;102327.72;5032309;28;20030;-71
2022/01/16 09:19:33;;;;;;;43.42;24.15;;;;;;;4.36;81.86;102324.34;5028029;28;20105;-71
2022/01/16 09:22:01;;;;;;;42.50;23.40;;;;;;;4.41;81.87;102329.66;5030859;28;20101;-71
2022/01/16 09:24:28;;;;;;;40.42;22.70;;;;;;;4.44;81.69;102335.81;5031600;28;20041;-70
2022/01/16 09:26:56;;;;;;;41.03;22.63;;;;;;;4.46;81.77;102339.34;5028954;28;20049;-70
2022/01/16 09:29:24;;;;;;;39.63;22.15;;;;;;;4.49;81.72;102334.16;5035447;28;20031;-70
2022/01/16 09:31:51;;;;;;;55.00;30.27;;;;;;;4.49;81.62;102336.75;5027914;28;20092;-68
2022/01/16 09:34:19;;;;;;;45.05;23.70;;;;;;;4.45;81.65;102342.78;5029290;28;20058;-69
2022/01/16 09:36:46;;;;;;;42.47;25.05;;;;;;;4.41;81.60;102345.31;5030381;28;20093;-69
2022/01/16 09:39:13;;;;;;;47.08;25.50;;;;;;;4.39;81.47;102353.09;5032185;28;20046;-68
2022/01/16 09:41:42;;;;;;;40.55;23.48;;;;;;;4.35;81.94;102339.09;5028363;28;20552;-71
2022/01/16 09:44:09;;;;;;;40.95;22.48;;;;;;;4.34;82.10;102357.38;5029858;28;20045;-71
2022/01/16 09:46:37;;;;;;;45.78;25.27;;;;;;;4.31;82.29;102357.28;5044590;28;20104;-70
2022/01/16 09:49:04;;;;;;;47.70;25.23;;;;;;;4.33;82.41;102360.81;5025844;28;20094;-70
2022/01/16 09:51:32;;;;;;;46.83;24.63;;;;;;;4.34;82.53;102354.75;5030151;28;20042;-70
2022/01/16 09:54:01;;;;;;;47.50;24.50;;;;;;;4.35;82.49;102360.00;5025499;28;20189;-70
2022/01/16 09:56:28;;;;;;;46.92;25.20;;;;;;;4.37;82.60;102374.81;5031664;28;20049;-71
2022/01/16 09:58:55;;;;;;;42.03;23.85;;;;;;;4.39;82.67;102374.00;5046877;28;20174;-70
2022/01/16 10:01:22;;;;;;;46.67;24.83;;;;;;;4.39;82.76;102374.00;5035455;28;20038;-71
2022/01/16 10:03:49;;;;;;;47.47;24.13;;;;;;;4.40;82.75;102380.13;5029554;28;20038;-69
2022/01/16 10:06:22;;;;;;;48.63;25.17;;;;;;;4.44;82.55;102382.81;5031281;28;20456;-71
2022/01/16 10:08:54;;;;;;;47.17;24.40;;;;;;;4.43;82.54;102377.53;5030719;28;20060;-70
2022/01/16 10:11:50;;;;;;;47.35;24.27;;;;;;;4.45;82.71;102378.47;5031718;28;21020;-71
2022/01/16 10:14:46;;;;;;;45.88;24.20;;;;;;;4.48;82.66;102389.84;5026779;28;20111;-71
2022/01/16 10:17:24;;;;;;;51.83;26.55;;;;;;;4.53;82.72;102391.69;5026840;28;20047;-69
2022/01/16 10:20:07;;;;;;;46.80;23.27;;;;;;;4.56;82.60;102395.22;5029897;28;20125;-71
2022/01/16 10:22:45;;;;;;;53.03;28.02;;;;;;;4.59;82.62;102405.75;5026720;28;20045;-70
2022/01/16 10:25:15;;;;;;;49.63;26.25;;;;;;;4.64;82.59;102396.25;5042707;28;20567;-68
2022/01/16 10:27:45;;;;;;;50.80;25.35;;;;;;;4.66;82.56;102398.91;5029876;28;20438;-70
2022/01/16 10:30:17;;;;;;;55.33;27.63;;;;;;;4.68;82.59;102404.16;5030775;28;20034;-70
2022/01/16 10:32:46;;;;;;;52.10;27.75;;;;;;;4.67;82.66;102403.28;5029003;28;20846;-69
2022/01/16 10:35:23;;;;;;;53.38;26.65;;;;;;;4.68;82.70;102405.03;5029047;28;20049;-71
2022/01/16 10:37:56;;;;;;;59.38;28.00;;;;;;;4.71;82.80;102396.38;5028418;28;20038;-71
2022/01/16 10:40:33;;;;;;;59.28;29.55;;;;;;;4.70;82.61;102412.91;5029752;28;20046;-70
2022/01/16 10:43:06;;;;;;;59.75;29.67;;;;;;;4.72;82.86;102417.31;5025906;28;20046;-68
2022/01/16 10:45:35;;;;;;;62.25;30.73;;;;;;;4.76;82.67;102416.53;5032282;28;20568;-71
2022/01/16 10:48:05;;;;;;;67.57;30.98;;;;;;;4.77;82.83;102420.91;5028585;28;20563;-71
2022/01/16 10:50:40;;;;;;;65.15;30.08;;;;;;;4.80;82.79;102418.31;5027347;28;20607;-70
2022/01/16 10:53:15;;;;;;;61.40;30.45;;;;;;;4.83;82.71;102414.91;5029686;28;20042;-71
2022/01/16 10:55:57;;;;;;;66.47;31.83;;;;;;;4.88;83.02;102412.38;5028841;28;20137;-70
2022/01/16 10:58:30;;;;;;;62.03;30.98;;;;;;;4.91;82.73;102413.31;5023182;28;20054;-70
2022/01/16 11:01:08;;;;;;;63.30;31.17;;;;;;;4.97;82.68;102409.94;5026946;28;20041;-70
2022/01/16 11:03:46;;;;;;;68.57;32.17;;;;;;;5.00;82.61;102412.59;5030189;28;20129;-71
2022/01/16 11:06:18;;;;;;;76.10;33.60;;;;;;;5.02;82.60;102415.25;5030458;28;20034;-70
2022/01/16 11:08:57;;;;;;;64.50;31.20;;;;;;;5.03;82.32;102417.00;5028788;28;20662;-70
2022/01/16 11:11:25;;;;;;;73.05;34.22;;;;;;;5.04;82.50;102413.50;5030532;28;20044;-70
2022/01/16 11:13:55;;;;;;;71.50;34.28;;;;;;;5.05;82.62;102423.13;5025687;28;20484;-70
2022/01/16 11:16:24;;;;;;;68.95;30.05;;;;;;;5.08;82.43;102421.47;5034054;28;20145;-70
2022/01/16 11:18:51;;;;;;;69.60;30.45;;;;;;;5.08;82.47;102413.63;5031743;28;20046;-70
2022/01/16 11:21:31;;;;;;;70.30;31.40;;;;;;;5.08;82.39;102423.19;5032940;28;20045;-70
2022/01/16 11:26:27;;;;;;;75.22;31.20;;;;;;;5.00;82.59;102425.66;5033451;28;20093;-69
2022/01/16 11:28:56;;;;;;;65.40;29.58;;;;;;;5.01;82.53;102423.94;5037684;28;20069;-69
2022/01/16 11:31:24;;;;;;;69.63;28.77;;;;;;;4.97;82.37;102421.25;5048300;28;20042;-70
2022/01/16 11:33:52;;;;;;;65.63;29.75;;;;;;;4.94;82.60;102422.94;5033109;28;20042;-69
2022/01/16 11:36:28;;;;;;;68.43;31.17;;;;;;;4.95;82.61;102422.09;5033119;28;20053;-69
2022/01/16 11:39:02;;;;;;;73.05;29.65;;;;;;;4.95;82.68;102420.34;5027327;28;20487;-71
2022/01/16 11:42:02;;;;;;;69.40;29.80;;;;;;;4.93;82.64;102419.47;5032836;28;20539;-69
2022/01/16 11:44:32;;;;;;;69.30;29.25;;;;;;;4.92;82.82;102417.69;5023755;28;20248;-69
2022/01/16 11:47:04;;;;;;;72.72;29.63;;;;;;;4.93;82.71;102427.31;5031194;28;20044;-69
2022/01/16 11:49:36;;;;;;;65.22;28.52;;;;;;;4.94;82.69;102418.56;5027284;28;21041;-68
2022/01/16 11:52:16;;;;;;;65.47;28.45;;;;;;;4.93;82.80;102429.00;5032695;28;20042;-70
2022/01/16 11:54:50;;;;;;;64.53;26.55;;;;;;;4.93;82.73;102416.84;5027609;28;20049;-70
2022/01/16 11:57:26;;;;;;;63.88;28.95;;;;;;;4.92;82.71;102415.09;5033808;28;20034;-69
2022/01/16 12:00:05;;;;;;;58.78;25.20;;;;;;;4.91;82.42;102418.53;5032255;28;20045;-69
2022/01/16 12:02:44;;;;;;;63.53;27.42;;;;;;;4.88;82.78;102408.03;5032973;28;20485;-70
2022/01/16 12:05:22;;;;;;;66.93;27.58;;;;;;;4.91;82.79;102409.81;5030196;28;20088;-70
2022/01/16 12:07:52;;;;;;;66.05;27.80;;;;;;;4.94;82.65;102425.56;5033739;28;20120;-69